Time;durP1;ratioP1;P1;durP2;ratioP2;P2;SDS_P1;SDS_P2;PMS_P1;PMS_P2;Temp;Humidity;BMP_temperature;BMP_pressure;BME280_temperature;BME280_humidity;BME280_pressure;Samples;Min_cycle;Max_cycle;Signal;HPM_P1;HPM_P2
2023/10/16 00:01:28;;;;;;;2.33;2.12;;;2.20;99.90;;;;;;455060;261;27921;-70
2023/10/16 00:03:28;;;;;;;2.42;2.22;;;2.10;99.90;;;;;;455040;261;27505;-71
2023/10/16 00:05:32;;;;;;;3.10;2.47;;;2.20;99.90;;;;;;455056;261;27996;-70
2023/10/16 00:07:31;;;;;;;2.97;2.40;;;2.20;99.90;;;;;;455024;261;28084;-71
2023/10/16 00:09:34;;;;;;;2.58;2.37;;;2.20;99.90;;;;;;455062;261;28041;-70
2023/10/16 00:11:37;;;;;;;4.37;3.03;;;2.00;99.90;;;;;;455051;261;29183;-71
2023/10/16 00:13:39;;;;;;;4.25;2.25;;;2.10;99.90;;;;;;454992;261;27514;-73
2023/10/16 00:15:49;;;;;;;2.25;2.00;;;2.10;99.90;;;;;;455029;261;27558;-71
2023/10/16 00:17:37;;;;;;;4.32;2.12;;;2.10;99.90;;;;;;454620;260;27601;-73
2023/10/16 00:19:38;;;;;;;1.90;1.80;;;2.10;99.90;;;;;;455051;261;27467;-70
2023/10/16 00:21:44;;;;;;;1.80;1.70;;;2.10;99.90;;;;;;455080;261;27508;-72
2023/10/16 00:23:42;;;;;;;1.70;1.60;;;2.00;99.90;;;;;;454905;260;27485;-71
2023/10/16 00:25:43;;;;;;;3.08;2.62;;;1.90;99.90;;;;;;455065;261;27508;-74
2023/10/16 00:27:44;;;;;;;1.77;1.67;;;1.80;99.90;;;;;;455059;261;27549;-70
2023/10/16 00:29:46;;;;;;;1.80;1.70;;;1.70;99.90;;;;;;455054;261;27501;-71
2023/10/16 00:31:51;;;;;;;2.58;1.77;;;1.60;99.90;;;;;;455056;261;27482;-71
2023/10/16 00:33:49;;;;;;;2.05;1.90;;;1.70;99.90;;;;;;455035;261;27565;-69
2023/10/16 00:35:49;;;;;;;2.42;1.98;;;1.60;99.90;;;;;;455001;261;27629;-71
2023/10/16 00:37:51;;;;;;;2.00;1.90;;;1.60;99.90;;;;;;454532;258;27502;-70
2023/10/16 00:39:52;;;;;;;2.97;2.00;;;1.70;99.90;;;;;;455079;261;27602;-71
2023/10/16 00:41:53;;;;;;;3.35;1.60;;;1.70;99.90;;;;;;455027;261;28064;-71
2023/10/16 00:43:56;;;;;;;2.00;1.90;;;1.70;99.90;;;;;;455059;261;27923;-71
2023/10/16 00:45:59;;;;;;;2.65;2.30;;;1.80;99.90;;;;;;455043;261;28069;-71
2023/10/16 00:47:58;;;;;;;1.80;1.70;;;1.90;99.90;;;;;;455032;261;28015;-70
2023/10/16 00:50:02;;;;;;;2.50;1.90;;;1.90;99.90;;;;;;455033;261;27502;-71
2023/10/16 00:51:59;;;;;;;1.92;1.80;;;1.80;99.90;;;;;;455038;261;27509;-72
2023/10/16 00:54:01;;;;;;;2.00;1.80;;;1.80;99.90;;;;;;455066;261;27586;-71
2023/10/16 00:56:02;;;;;;;1.92;1.60;;;1.80;99.90;;;;;;455044;261;27582;-71
2023/10/16 00:58:06;;;;;;;2.67;2.20;;;1.90;99.90;;;;;;455076;261;27473;-71
2023/10/16 01:00:12;;;;;;;2.15;1.87;;;1.80;99.90;;;;;;455020;261;28118;-71
2023/10/16 01:02:14;;;;;;;1.90;1.60;;;1.70;99.90;;;;;;455013;261;27505;-72
2023/10/16 01:04:07;;;;;;;2.50;2.20;;;1.70;99.90;;;;;;454954;260;27462;-71
2023/10/16 01:06:15;;;;;;;2.92;1.90;;;1.70;99.90;;;;;;455032;261;27502;-71
2023/10/16 01:08:10;;;;;;;1.75;1.62;;;1.60;99.90;;;;;;454985;261;27502;-70
2023/10/16 01:10:11;;;;;;;1.85;1.75;;;1.70;99.90;;;;;;455050;261;27578;-71
2023/10/16 01:12:12;;;;;;;3.40;1.80;;;1.80;99.90;;;;;;455036;261;27594;-72
2023/10/16 01:14:13;;;;;;;2.12;1.67;;;1.70;99.90;;;;;;455004;261;27470;-71
2023/10/16 01:16:16;;;;;;;3.50;1.77;;;1.70;99.90;;;;;;454993;261;27502;-71
2023/10/16 01:18:16;;;;;;;2.35;1.70;;;1.60;99.90;;;;;;455022;261;27621;-72
2023/10/16 01:20:20;;;;;;;3.80;2.05;;;1.60;99.90;;;;;;455016;261;27553;-72
2023/10/16 01:22:22;;;;;;;1.73;1.62;;;1.40;99.90;;;;;;454893;261;27598;-71
2023/10/16 01:24:21;;;;;;;2.17;1.80;;;1.30;99.90;;;;;;454986;261;27545;-72
2023/10/16 01:26:24;;;;;;;2.53;1.60;;;1.40;99.90;;;;;;455003;261;27577;-72
2023/10/16 01:28:23;;;;;;;3.37;1.92;;;1.50;99.90;;;;;;454974;261;27590;-72
2023/10/16 01:30:24;;;;;;;1.65;1.55;;;1.50;99.90;;;;;;455002;261;27951;-73
2023/10/16 01:32:25;;;;;;;1.80;1.70;;;1.60;99.90;;;;;;454940;261;27600;-73
2023/10/16 01:34:31;;;;;;;1.55;1.45;;;1.70;99.90;;;;;;455012;261;27622;-72
2023/10/16 01:36:30;;;;;;;1.70;1.60;;;1.60;99.90;;;;;;454994;261;28061;-71
2023/10/16 01:38:31;;;;;;;1.77;1.50;;;1.60;99.90;;;;;;455025;261;29061;-71
2023/10/16 01:40:37;;;;;;;5.93;1.90;;;1.60;99.90;;;;;;455060;261;27467;-71
2023/10/16 01:42:33;;;;;;;2.12;1.65;;;1.60;99.90;;;;;;454976;261;27506;-71
2023/10/16 01:44:34;;;;;;;1.90;1.80;;;1.60;99.90;;;;;;454542;261;27497;-71
2023/10/16 01:46:36;;;;;;;1.75;1.62;;;1.60;99.90;;;;;;455103;261;27470;-71
2023/10/16 01:48:39;;;;;;;2.08;1.98;;;1.50;99.90;;;;;;455008;261;28015;-72
2023/10/16 01:50:38;;;;;;;2.55;2.35;;;1.50;99.90;;;;;;455068;261;27519;-71
2023/10/16 01:52:40;;;;;;;2.05;1.55;;;1.60;99.90;;;;;;455084;261;27542;-71
2023/10/16 01:54:41;;;;;;;2.33;1.48;;;1.70;99.90;;;;;;455089;261;27512;-72
2023/10/16 01:56:42;;;;;;;2.83;1.60;;;1.70;99.90;;;;;;455054;261;27494;-72
2023/10/16 01:58:44;;;;;;;1.70;1.60;;;1.70;99.90;;;;;;455103;261;27463;-71
2023/10/16 02:00:45;;;;;;;1.80;1.70;;;1.70;99.90;;;;;;455063;261;27520;-71
2023/10/16 02:02:46;;;;;;;1.90;1.80;;;1.70;99.90;;;;;;455082;261;27546;-70
2023/10/16 02:04:47;;;;;;;2.12;1.55;;;1.60;99.90;;;;;;455093;261;27618;-71
2023/10/16 02:06:48;;;;;;;1.40;1.30;;;1.60;99.90;;;;;;455103;261;27847;-73
2023/10/16 02:08:50;;;;;;;1.48;1.37;;;1.60;99.90;;;;;;455055;261;27462;-70
2023/10/16 02:10:52;;;;;;;1.52;1.42;;;1.60;99.90;;;;;;455095;261;27602;-71
2023/10/16 02:12:53;;;;;;;1.75;1.65;;;1.50;99.90;;;;;;455078;261;28014;-71
2023/10/16 02:14:56;;;;;;;3.10;2.12;;;1.50;99.90;;;;;;455077;261;27992;-72
2023/10/16 02:16:57;;;;;;;8.25;2.45;;;1.50;99.90;;;;;;454977;261;27474;-70
2023/10/16 02:18:57;;;;;;;1.70;1.60;;;1.60;99.90;;;;;;455057;261;27500;-72
2023/10/16 02:20:59;;;;;;;1.33;1.23;;;1.60;99.90;;;;;;455068;261;27493;-71
2023/10/16 02:23:00;;;;;;;3.12;1.58;;;1.60;99.90;;;;;;455084;261;27471;-72
2023/10/16 02:25:01;;;;;;;1.67;1.42;;;1.60;99.90;;;;;;455087;261;27508;-72
2023/10/16 02:27:02;;;;;;;1.37;1.25;;;1.50;99.90;;;;;;455061;261;27495;-71
2023/10/16 02:29:04;;;;;;;2.10;1.58;;;1.50;99.90;;;;;;455058;261;27602;-71
2023/10/16 02:31:05;;;;;;;3.87;1.87;;;1.50;99.90;;;;;;455044;261;27934;-73
2023/10/16 02:35:19;;;;;;;1.50;1.40;;;1.50;99.90;;;;;;455047;261;28037;-72
2023/10/16 02:37:20;;;;;;;1.65;1.30;;;1.40;99.90;;;;;;455071;261;27995;-70
2023/10/16 02:39:35;;;;;;;1.50;1.40;;;1.50;99.90;;;;;;455075;261;28004;-72
2023/10/16 02:41:29;;;;;;;2.83;1.95;;;1.30;99.90;;;;;;454995;261;27556;-71
2023/10/16 02:43:30;;;;;;;2.03;1.50;;;1.30;99.90;;;;;;455023;261;27505;-72
2023/10/16 02:45:32;;;;;;;2.67;1.48;;;1.30;99.90;;;;;;454437;258;27502;-73
2023/10/16 02:47:32;;;;;;;1.80;1.50;;;1.20;99.90;;;;;;455050;261;27555;-71
2023/10/16 02:49:34;;;;;;;1.52;1.42;;;1.30;99.90;;;;;;455069;261;27533;-72
2023/10/16 02:51:35;;;;;;;1.58;1.48;;;1.20;99.90;;;;;;455086;261;27511;-70
2023/10/16 02:53:42;;;;;;;4.57;1.98;;;1.20;99.90;;;;;;455097;261;27543;-71
2023/10/16 02:55:43;;;;;;;1.58;1.48;;;1.30;99.90;;;;;;455054;261;27514;-72
2023/10/16 02:57:45;;;;;;;1.75;1.50;;;1.20;99.90;;;;;;455013;261;27471;-71
2023/10/16 02:59:46;;;;;;;1.62;1.52;;;1.30;99.90;;;;;;455048;261;27506;-71
2023/10/16 03:01:50;;;;;;;1.58;1.45;;;1.30;99.90;;;;;;455033;261;28181;-72
2023/10/16 03:03:50;;;;;;;1.70;1.60;;;1.30;99.90;;;;;;455058;261;27581;-72
2023/10/16 03:05:51;;;;;;;2.25;1.50;;;1.30;99.90;;;;;;454988;261;27518;-71
2023/10/16 03:07:52;;;;;;;2.30;2.10;;;1.30;99.90;;;;;;455055;261;27605;-72
2023/10/16 03:09:55;;;;;;;1.80;1.70;;;1.30;99.90;;;;;;455019;261;27516;-73
2023/10/16 03:12:04;;;;;;;1.92;1.83;;;1.30;99.90;;;;;;455043;261;27513;-72
2023/10/16 03:13:59;;;;;;;2.65;1.77;;;1.30;99.90;;;;;;454883;261;27604;-71
2023/10/16 03:16:06;;;;;;;2.10;1.70;;;1.30;99.90;;;;;;455062;261;29009;-71
2023/10/16 03:18:00;;;;;;;1.52;1.42;;;1.20;99.90;;;;;;455013;261;27525;-71
2023/10/16 03:20:07;;;;;;;1.77;1.45;;;1.20;99.90;;;;;;455080;261;27581;-71
2023/10/16 03:22:11;;;;;;;1.80;1.70;;;1.20;99.90;;;;;;455012;261;27545;-72
2023/10/16 03:24:04;;;;;;;1.60;1.50;;;1.10;99.90;;;;;;455019;261;27506;-72
2023/10/16 03:26:05;;;;;;;2.30;1.45;;;0.90;99.90;;;;;;455016;261;27534;-70
2023/10/16 03:28:06;;;;;;;1.60;1.50;;;0.80;99.90;;;;;;455043;261;28034;-71
2023/10/16 03:30:09;;;;;;;1.60;1.50;;;0.80;99.90;;;;;;455069;261;27523;-71
2023/10/16 03:32:09;;;;;;;6.65;2.72;;;0.90;99.90;;;;;;455061;261;27474;-72
2023/10/16 03:34:11;;;;;;;2.65;1.85;;;1.00;99.90;;;;;;455068;261;27504;-72
2023/10/16 03:36:11;;;;;;;2.00;1.60;;;1.00;99.90;;;;;;455021;261;27521;-71
2023/10/16 03:38:24;;;;;;;2.47;2.28;;;1.10;99.90;;;;;;455070;261;27483;-71
2023/10/16 03:40:14;;;;;;;2.42;1.90;;;1.10;99.90;;;;;;454976;261;27517;-72
2023/10/16 03:42:17;;;;;;;1.75;1.65;;;0.90;99.90;;;;;;455021;261;27570;-71
2023/10/16 03:44:18;;;;;;;1.60;1.50;;;0.90;99.90;;;;;;455014;261;27506;-71
2023/10/16 03:46:18;;;;;;;3.25;1.67;;;1.00;99.90;;;;;;455072;261;27486;-72
2023/10/16 03:48:20;;;;;;;2.35;1.50;;;1.10;99.90;;;;;;455060;261;27478;-72
2023/10/16 03:50:42;;;;;;;1.85;1.62;;;1.10;99.90;;;;;;455056;261;28015;-72
2023/10/16 03:52:22;;;;;;;3.58;1.90;;;1.20;99.90;;;;;;454070;260;28064;-71
2023/10/16 03:54:35;;;;;;;1.50;1.40;;;1.20;99.90;;;;;;455041;261;28037;-72
2023/10/16 03:56:27;;;;;;;1.90;1.60;;;1.30;99.90;;;;;;454200;253;27594;-73
2023/10/16 03:58:33;;;;;;;2.00;1.60;;;1.40;99.90;;;;;;455041;261;27496;-72
2023/10/16 04:02:49;;;;;;;1.50;1.40;;;1.30;99.90;;;;;;455051;261;27477;-72
2023/10/16 04:04:53;;;;;;;2.55;2.00;;;1.20;99.90;;;;;;455065;261;27619;-71
2023/10/16 04:06:56;;;;;;;3.00;2.10;;;1.20;99.90;;;;;;455014;261;27522;-73
2023/10/16 04:08:58;;;;;;;3.67;2.15;;;1.10;99.90;;;;;;455034;261;27994;-72
2023/10/16 04:10:57;;;;;;;2.00;1.90;;;1.10;99.90;;;;;;455052;261;28013;-72
2023/10/16 04:12:59;;;;;;;3.42;2.05;;;1.00;99.90;;;;;;455050;261;28084;-71
2023/10/16 04:15:14;;;;;;;2.10;1.92;;;1.00;99.90;;;;;;455045;261;27768;-71
2023/10/16 04:17:01;;;;;;;2.72;1.70;;;1.10;99.90;;;;;;454930;261;27517;-72
2023/10/16 04:26:25;;;;;;;1.92;1.55;;;0.80;99.90;;;;;;455059;261;27971;-71
2023/10/16 04:27:42;;;;;;;1.48;1.37;;;0.80;99.90;;;;;;454899;261;28099;-72
2023/10/16 04:32:20;;;;;;;2.17;1.65;;;0.80;99.90;;;;;;455040;261;27522;-71
2023/10/16 04:38:55;;;;;;;1.83;1.73;;;0.80;99.90;;;;;;455044;261;27919;-72
2023/10/16 04:43:37;;;;;;;1.67;1.58;;;0.80;99.90;;;;;;455029;261;28036;-72
2023/10/16 04:47:26;;;;;;;2.22;2.00;;;0.90;99.90;;;;;;455023;261;27550;-72
2023/10/16 04:49:28;;;;;;;1.67;1.58;;;0.90;99.90;;;;;;455006;261;27502;-72
2023/10/16 04:51:38;;;;;;;2.55;1.87;;;0.90;99.90;;;;;;455030;261;27550;-73
2023/10/16 04:53:28;;;;;;;2.15;1.85;;;1.00;99.90;;;;;;454965;261;27474;-72
2023/10/16 04:57:53;;;;;;;2.17;1.98;;;1.00;99.90;;;;;;455011;261;27602;-72
2023/10/16 05:00:00;;;;;;;3.28;2.05;;;1.00;99.90;;;;;;454997;261;27601;-72
2023/10/16 05:13:39;;;;;;;3.35;1.58;;;0.80;99.90;;;;;;449385;263;27575;-72
2023/10/16 05:22:03;;;;;;;2.10;1.90;;;0.90;99.90;;;;;;436130;271;27655;-72
2023/10/16 06:15:20;;;;;;;2.50;2.25;;;1.10;99.90;;;;;;454869;261;27513;-71
2023/10/16 06:17:17;;;;;;;5.62;3.08;;;1.00;99.90;;;;;;454742;261;27524;-73
2023/10/16 06:19:17;;;;;;;2.60;1.80;;;1.00;99.90;;;;;;454996;260;27510;-72
2023/10/16 06:21:17;;;;;;;2.78;2.33;;;1.00;99.90;;;;;;440859;269;28079;-72
2023/10/16 06:23:19;;;;;;;2.47;2.20;;;1.00;99.90;;;;;;438710;264;28083;-71
2023/10/16 06:25:28;;;;;;;2.47;1.95;;;1.00;99.90;;;;;;444177;268;27590;-72
2023/10/16 06:27:24;;;;;;;3.47;2.10;;;1.00;99.90;;;;;;455239;248;27990;-73
2023/10/16 06:29:24;;;;;;;1.90;1.80;;;1.00;99.90;;;;;;471698;251;27505;-72
2023/10/16 06:31:26;;;;;;;2.60;1.60;;;0.90;99.90;;;;;;474151;250;27547;-70
2023/10/16 06:33:28;;;;;;;1.83;1.42;;;0.80;99.90;;;;;;470945;251;27457;-71
2023/10/16 06:35:28;;;;;;;2.95;2.00;;;0.80;99.90;;;;;;463878;255;27569;-70
2023/10/16 06:37:32;;;;;;;2.80;2.10;;;0.90;99.90;;;;;;463892;255;27629;-71
2023/10/16 06:39:35;;;;;;;7.97;2.60;;;0.90;99.90;;;;;;460122;251;27625;-72
2023/10/16 06:41:33;;;;;;;4.57;1.80;;;0.90;99.90;;;;;;459210;258;27540;-73
2023/10/16 06:43:35;;;;;;;4.28;2.78;;;1.00;99.90;;;;;;459319;251;27547;-71
2023/10/16 06:47:47;;;;;;;2.45;2.22;;;1.30;99.90;;;;;;451156;263;27490;-71
2023/10/16 06:49:43;;;;;;;2.47;2.28;;;1.30;99.90;;;;;;443906;267;28088;-72
2023/10/16 06:51:44;;;;;;;2.80;2.50;;;1.40;99.90;;;;;;452255;263;28119;-72
2023/10/16 06:53:46;;;;;;;3.62;2.42;;;1.60;99.90;;;;;;452289;258;27922;-70
2023/10/16 06:55:47;;;;;;;2.60;2.25;;;1.70;99.90;;;;;;452224;263;28034;-72
2023/10/16 06:57:48;;;;;;;3.08;2.78;;;1.80;99.90;;;;;;452166;263;27475;-70
2023/10/16 06:59:50;;;;;;;4.10;2.90;;;2.10;99.90;;;;;;452320;256;27522;-70
2023/10/16 07:01:51;;;;;;;5.80;3.05;;;2.20;99.90;;;;;;452053;263;27615;-73
2023/10/16 07:03:54;;;;;;;4.55;2.78;;;2.00;99.90;;;;;;452287;258;27436;-70
2023/10/16 07:05:53;;;;;;;3.10;2.80;;;2.10;99.90;;;;;;452147;263;27623;-72
2023/10/16 07:07:58;;;;;;;3.58;2.33;;;2.10;99.90;;;;;;452227;263;27577;-72
2023/10/16 07:10:01;;;;;;;7.03;2.85;;;2.10;99.90;;;;;;463004;256;27501;-71
2023/10/16 07:12:03;;;;;;;5.15;2.65;;;2.20;99.90;;;;;;463504;256;27761;-71
2023/10/16 07:14:01;;;;;;;10.77;4.20;;;2.20;99.90;;;;;;458242;256;27568;-71
2023/10/16 07:16:02;;;;;;;7.70;4.50;;;2.40;99.90;;;;;;454454;256;27391;-70
2023/10/16 07:18:06;;;;;;;13.35;5.18;;;2.90;99.90;;;;;;463612;256;27677;-72
2023/10/16 07:20:17;;;;;;;7.55;4.37;;;3.40;99.90;;;;;;463436;256;27558;-70
2023/10/16 07:22:10;;;;;;;4.80;3.28;;;3.50;99.90;;;;;;462498;256;27543;-70
2023/10/16 07:24:09;;;;;;;7.50;3.78;;;3.60;99.90;;;;;;463371;256;27584;-72
2023/10/16 07:26:09;;;;;;;9.73;5.20;;;3.60;99.90;;;;;;474037;246;27636;-70
2023/10/16 07:28:10;;;;;;;13.80;4.60;;;3.80;99.90;;;;;;468666;248;27942;-72
2023/10/16 07:30:21;;;;;;;9.93;5.10;;;4.00;99.90;;;;;;472435;252;28060;-71
2023/10/16 07:32:12;;;;;;;9.68;5.07;;;4.20;99.90;;;;;;471296;246;27522;-72
2023/10/16 07:34:15;;;;;;;9.70;4.50;;;4.40;99.90;;;;;;472042;248;27564;-73
2023/10/16 07:36:14;;;;;;;7.65;4.65;;;4.40;99.90;;;;;;472321;248;27608;-71
2023/10/16 07:38:26;;;;;;;8.18;4.93;;;4.60;99.90;;;;;;472061;252;27575;-72
2023/10/16 07:40:20;;;;;;;9.05;4.18;;;4.60;99.90;;;;;;471162;252;27574;-70
2023/10/16 07:42:24;;;;;;;6.47;4.00;;;4.70;99.90;;;;;;472391;252;27636;-71
2023/10/16 07:44:19;;;;;;;6.95;4.18;;;4.70;99.90;;;;;;472400;252;27656;-73
2023/10/16 07:46:30;;;;;;;8.00;4.62;;;4.70;99.90;;;;;;472494;248;28057;-71
2023/10/16 07:48:31;;;;;;;9.75;4.53;;;4.80;99.90;;;;;;472455;252;27609;-71
2023/10/16 07:50:32;;;;;;;11.93;4.25;;;4.80;99.90;;;;;;472485;252;27575;-71
2023/10/16 07:52:33;;;;;;;9.07;4.35;;;4.80;99.90;;;;;;472477;248;27500;-71
2023/10/16 07:54:36;;;;;;;7.22;4.15;;;4.90;99.90;;;;;;472469;252;27522;-71
2023/10/16 07:56:38;;;;;;;6.85;3.97;;;4.90;99.90;;;;;;472473;252;27580;-71
2023/10/16 07:58:47;;;;;;;8.38;3.80;;;4.90;99.90;;;;;;472460;252;28070;-71
2023/10/16 08:00:42;;;;;;;6.60;3.85;;;5.00;99.90;;;;;;472414;252;28048;-71
2023/10/16 08:02:45;;;;;;;3.17;2.60;;;5.10;99.90;;;;;;472511;251;27828;-72
2023/10/16 08:04:43;;;;;;;3.50;2.95;;;5.10;99.90;;;;;;472493;247;27522;-71
2023/10/16 08:06:45;;;;;;;4.72;3.50;;;5.20;99.90;;;;;;472493;252;27560;-72
2023/10/16 08:08:48;;;;;;;5.43;3.25;;;5.20;99.90;;;;;;472505;247;27477;-71
2023/10/16 08:10:45;;;;;;;4.95;2.80;;;5.20;99.90;;;;;;473221;249;27525;-71
2023/10/16 08:12:47;;;;;;;6.03;3.15;;;5.10;99.90;;;;;;473253;251;28007;-73
2023/10/16 08:14:51;;;;;;;8.52;3.37;;;5.10;99.90;;;;;;473218;251;27950;-72
2023/10/16 08:16:58;;;;;;;8.35;3.95;;;5.10;99.90;;;;;;473239;251;27980;-72
2023/10/16 08:18:50;;;;;;;4.18;3.33;;;5.10;99.90;;;;;;473182;251;27996;-73
2023/10/16 08:21:01;;;;;;;5.78;3.83;;;5.10;99.90;;;;;;473240;251;27474;-71
2023/10/16 08:23:05;;;;;;;6.30;3.58;;;5.20;99.90;;;;;;473245;251;27956;-71
2023/10/16 08:25:04;;;;;;;6.65;3.40;;;5.20;99.90;;;;;;473280;251;27497;-72
2023/10/16 08:27:11;;;;;;;6.25;2.97;;;5.30;99.90;;;;;;473224;251;27594;-72
2023/10/16 08:31:25;;;;;;;3.92;2.30;;;5.60;99.90;;;;;;473242;251;27486;-72
2023/10/16 08:33:30;;;;;;;4.57;2.45;;;5.60;99.90;;;;;;474109;249;27538;-72
2023/10/16 08:35:38;;;;;;;4.37;2.10;;;5.70;99.90;;;;;;475540;249;27445;-72
2023/10/16 08:37:31;;;;;;;4.78;2.50;;;5.70;99.90;;;;;;475483;249;27515;-71
2023/10/16 08:39:36;;;;;;;7.17;2.50;;;5.80;99.90;;;;;;475539;249;27533;-71
2023/10/16 08:41:45;;;;;;;4.40;1.90;;;5.90;99.90;;;;;;475538;249;28858;-71
2023/10/16 08:43:54;;;;;;;8.10;1.90;;;6.00;99.90;;;;;;475549;247;27959;-72
2023/10/16 08:45:55;;;;;;;5.78;2.33;;;5.90;99.90;;;;;;475490;249;29360;-72
2023/10/16 08:47:58;;;;;;;8.07;3.00;;;6.00;99.90;;;;;;468301;248;28086;-73
2023/10/16 08:49:58;;;;;;;4.10;2.10;;;6.00;99.90;;;;;;467335;254;28956;-71
2023/10/16 08:52:20;;;;;;;4.93;2.53;;;6.20;99.90;;;;;;467401;254;27496;-72
2023/10/16 08:54:02;;;;;;;6.32;2.30;;;6.20;99.90;;;;;;466529;254;27686;-72
2023/10/16 08:56:03;;;;;;;6.10;2.30;;;6.30;99.90;;;;;;467180;254;27504;-71
2023/10/16 08:58:04;;;;;;;6.77;2.50;;;6.30;99.90;;;;;;467331;254;27560;-72
2023/10/16 09:00:10;;;;;;;5.60;2.45;;;6.30;99.90;;;;;;473820;250;27676;-72
2023/10/16 09:02:05;;;;;;;3.70;2.50;;;6.30;99.90;;;;;;474967;250;27928;-71
2023/10/16 09:04:07;;;;;;;4.47;2.20;;;6.50;99.90;;;;;;475478;250;28013;-73
2023/10/16 09:06:08;;;;;;;2.80;1.90;;;6.50;99.90;;;;;;475406;250;27686;-71
2023/10/16 09:08:14;;;;;;;2.83;2.10;;;6.50;99.90;;;;;;475442;250;27978;-72
2023/10/16 09:10:10;;;;;;;6.50;2.05;;;6.50;99.90;;;;;;475078;250;27602;-71
2023/10/16 09:12:12;;;;;;;3.60;2.50;;;6.50;99.90;;;;;;475444;250;27442;-71
2023/10/16 09:14:16;;;;;;;6.35;2.20;;;6.60;99.90;;;;;;475470;250;27521;-71
2023/10/16 09:16:15;;;;;;;1.97;1.77;;;6.60;99.90;;;;;;475230;250;27407;-71
2023/10/16 09:18:15;;;;;;;5.23;1.97;;;6.70;99.90;;;;;;475433;250;28860;-71
2023/10/16 09:20:32;;;;;;;4.43;3.20;;;6.70;99.90;;;;;;475466;250;29208;-71
2023/10/16 09:22:23;;;;;;;6.23;1.80;;;6.90;99.90;;;;;;474395;250;27925;-74
2023/10/16 09:24:24;;;;;;;3.10;2.17;;;6.90;99.90;;;;;;475218;250;28102;-71
2023/10/16 09:26:32;;;;;;;3.77;1.93;;;7.00;99.90;;;;;;475249;250;28063;-71
2023/10/16 09:28:32;;;;;;;8.73;2.30;;;7.00;99.90;;;;;;474799;250;29992;-72
2023/10/16 09:30:31;;;;;;;5.83;2.10;;;7.00;99.90;;;;;;475062;250;28234;-71
2023/10/16 09:32:31;;;;;;;6.13;2.53;;;7.10;99.90;;;;;;475102;250;28373;-72
2023/10/16 09:34:33;;;;;;;3.10;1.80;;;7.10;99.90;;;;;;475315;250;28477;-74
2023/10/16 09:36:36;;;;;;;4.87;2.27;;;7.20;99.90;;;;;;475191;250;28338;-70
2023/10/16 09:38:34;;;;;;;5.03;2.60;;;7.20;99.90;;;;;;475111;250;28011;-71
2023/10/16 09:40:38;;;;;;;3.53;2.30;;;7.10;99.90;;;;;;475431;250;27586;-70
2023/10/16 09:42:45;;;;;;;8.13;2.10;;;7.10;99.90;;;;;;475363;250;28535;-71
2023/10/16 09:44:41;;;;;;;5.70;2.50;;;7.20;99.90;;;;;;474944;250;28202;-70
2023/10/16 09:48:43;;;;;;;4.60;2.33;;;7.20;99.90;;;;;;475372;250;27764;-71
2023/10/16 09:50:45;;;;;;;7.40;2.30;;;7.20;99.90;;;;;;471584;250;28030;-71
2023/10/16 09:52:46;;;;;;;4.80;2.40;;;7.30;99.90;;;;;;467389;254;28002;-70
2023/10/16 09:54:48;;;;;;;7.13;2.60;;;7.30;99.90;;;;;;467393;254;27900;-70
2023/10/16 09:56:48;;;;;;;6.70;2.50;;;7.30;99.90;;;;;;467274;254;27928;-71
2023/10/16 09:58:51;;;;;;;3.83;2.17;;;7.30;99.90;;;;;;467370;254;27635;-70
2023/10/16 10:00:51;;;;;;;4.07;2.97;;;7.30;99.90;;;;;;466425;254;28021;-71
2023/10/16 10:02:52;;;;;;;6.60;2.30;;;7.40;99.90;;;;;;465665;253;27990;-72
2023/10/16 10:04:54;;;;;;;3.50;2.40;;;7.40;99.90;;;;;;459276;258;28270;-71
2023/10/16 10:06:54;;;;;;;3.73;2.20;;;7.40;99.90;;;;;;463777;253;27991;-71
2023/10/16 10:11:26;;;;;;;2.47;1.90;;;7.40;99.90;;;;;;461184;258;28201;-73
2023/10/16 10:13:23;;;;;;;8.13;2.20;;;7.50;99.90;;;;;;460633;258;27812;-70
2023/10/16 10:15:22;;;;;;;3.37;2.10;;;7.50;99.90;;;;;;460926;258;28126;-71
2023/10/16 10:17:25;;;;;;;2.10;1.90;;;7.70;99.90;;;;;;472252;247;27876;-71
2023/10/16 10:19:24;;;;;;;3.00;2.13;;;7.70;99.90;;;;;;474431;249;27799;-71
2023/10/16 10:21:44;;;;;;;4.33;1.80;;;7.70;99.90;;;;;;469948;248;27924;-71
2023/10/16 10:23:36;;;;;;;5.07;2.40;;;7.70;99.90;;;;;;477069;249;27746;-71
2023/10/16 10:25:37;;;;;;;2.13;1.93;;;7.70;99.90;;;;;;469442;253;28000;-71
2023/10/16 10:27:38;;;;;;;4.80;1.77;;;7.70;99.90;;;;;;469114;253;27940;-70
2023/10/16 10:29:39;;;;;;;3.90;2.00;;;7.90;99.90;;;;;;477479;249;27929;-71
2023/10/16 10:31:40;;;;;;;4.57;2.47;;;7.90;99.90;;;;;;477551;249;28288;-71
2023/10/16 10:34:03;;;;;;;3.07;1.83;;;8.00;99.90;;;;;;477556;249;28408;-72
2023/10/16 10:35:47;;;;;;;1.97;1.77;;;8.00;99.90;;;;;;476437;249;27687;-70
2023/10/16 10:37:51;;;;;;;3.33;1.93;;;8.10;99.90;;;;;;477592;249;27781;-72
2023/10/16 10:39:48;;;;;;;5.90;2.37;;;8.10;99.90;;;;;;477355;249;27900;-71
2023/10/16 10:41:50;;;;;;;6.20;2.50;;;8.10;99.90;;;;;;477434;249;27571;-71
2023/10/16 10:43:50;;;;;;;1.60;1.50;;;8.30;99.90;;;;;;477545;249;27900;-71
2023/10/16 10:45:51;;;;;;;3.40;1.97;;;8.40;99.90;;;;;;477554;249;27918;-72
2023/10/16 10:47:54;;;;;;;3.30;2.00;;;8.30;99.90;;;;;;477595;249;27927;-72
2023/10/16 10:49:59;;;;;;;2.57;1.80;;;8.40;99.90;;;;;;477514;249;28014;-71
2023/10/16 10:51:55;;;;;;;3.93;2.10;;;8.50;99.90;;;;;;477578;249;27842;-71
2023/10/16 10:53:57;;;;;;;2.27;1.93;;;8.50;99.90;;;;;;477444;248;27795;-71
2023/10/16 10:55:58;;;;;;;6.00;1.73;;;8.60;99.90;;;;;;477544;249;28007;-70
2023/10/16 10:58:01;;;;;;;3.73;1.90;;;8.60;99.90;;;;;;477549;249;27804;-71
2023/10/16 11:00:24;;;;;;;2.23;1.70;;;8.70;99.90;;;;;;477551;249;28701;-72
2023/10/16 11:04:20;;;;;;;5.03;1.50;;;8.80;99.90;;;;;;477563;249;27932;-71
2023/10/16 11:06:20;;;;;;;3.10;1.87;;;8.80;99.90;;;;;;477571;249;27996;-71
2023/10/16 11:08:26;;;;;;;2.53;1.83;;;8.80;99.90;;;;;;477594;249;27949;-71
2023/10/16 11:10:25;;;;;;;4.33;1.80;;;8.90;99.90;;;;;;477557;249;27951;-72
2023/10/16 11:12:26;;;;;;;3.77;1.63;;;8.80;99.90;;;;;;477503;249;27791;-70
2023/10/16 11:14:28;;;;;;;1.60;1.50;;;8.80;99.90;;;;;;477476;249;28017;-71
2023/10/16 11:16:29;;;;;;;2.87;1.83;;;8.80;99.90;;;;;;477594;249;27816;-71
2023/10/16 11:18:30;;;;;;;2.30;1.40;;;8.80;99.90;;;;;;477594;249;27529;-71
2023/10/16 11:20:31;;;;;;;4.50;1.70;;;8.70;99.90;;;;;;477557;249;27944;-72
2023/10/16 11:22:34;;;;;;;1.60;1.50;;;8.80;99.90;;;;;;477572;249;27639;-72
2023/10/16 11:24:36;;;;;;;1.93;1.83;;;8.90;99.90;;;;;;477416;249;27587;-72
2023/10/16 11:26:37;;;;;;;2.43;1.80;;;8.80;99.90;;;;;;477548;249;27969;-72
2023/10/16 11:28:37;;;;;;;2.23;1.70;;;9.00;99.90;;;;;;477550;249;27765;-70
2023/10/16 11:30:41;;;;;;;3.30;1.70;;;9.10;99.90;;;;;;477495;249;27925;-71
2023/10/16 11:32:49;;;;;;;1.97;1.67;;;9.20;99.90;;;;;;477545;249;27931;-71
2023/10/16 11:34:50;;;;;;;2.70;1.80;;;9.30;99.90;;;;;;477529;249;28902;-71
2023/10/16 11:36:53;;;;;;;2.50;1.53;;;9.30;99.90;;;;;;473913;248;27998;-70
2023/10/16 11:38:55;;;;;;;1.60;1.50;;;9.40;99.90;;;;;;467301;253;28244;-70
2023/10/16 11:40:56;;;;;;;2.20;1.50;;;9.40;99.90;;;;;;456871;259;28723;-71
2023/10/16 11:42:57;;;;;;;1.37;1.27;;;9.40;99.90;;;;;;473912;250;27923;-71
2023/10/16 11:45:00;;;;;;;3.33;1.93;;;9.40;99.90;;;;;;468009;251;27930;-71
2023/10/16 11:47:05;;;;;;;4.43;1.70;;;9.30;99.90;;;;;;467868;254;27943;-72
2023/10/16 11:49:17;;;;;;;1.43;1.30;;;9.30;99.90;;;;;;474530;248;27922;-71
2023/10/16 11:51:09;;;;;;;2.80;1.57;;;9.40;99.90;;;;;;478547;248;27782;-71
2023/10/16 11:53:06;;;;;;;1.40;1.30;;;9.50;99.90;;;;;;479139;248;27978;-71
2023/10/16 11:55:07;;;;;;;2.33;1.47;;;9.50;99.90;;;;;;479602;248;28190;-71
2023/10/16 11:57:06;;;;;;;1.43;1.33;;;9.40;99.90;;;;;;476291;246;27696;-71
2023/10/16 11:59:10;;;;;;;2.10;1.43;;;9.40;99.90;;;;;;483830;246;27847;-71
2023/10/16 12:01:09;;;;;;;2.93;1.80;;;9.50;99.90;;;;;;475616;250;28088;-71
2023/10/16 12:03:14;;;;;;;2.13;1.30;;;9.60;99.90;;;;;;475817;249;28407;-73
2023/10/16 12:05:12;;;;;;;1.70;1.50;;;9.60;99.90;;;;;;483461;245;27861;-72
2023/10/16 12:07:15;;;;;;;2.83;1.50;;;9.50;99.90;;;;;;477852;246;27971;-71
2023/10/16 12:09:19;;;;;;;1.20;1.20;;;9.50;99.90;;;;;;472075;251;28027;-72
2023/10/16 12:11:20;;;;;;;3.10;2.03;;;9.70;99.90;;;;;;472172;251;27713;-71
2023/10/16 12:13:21;;;;;;;2.53;1.50;;;9.70;99.90;;;;;;472152;251;27941;-72
2023/10/16 12:15:25;;;;;;;1.50;1.40;;;9.70;99.90;;;;;;472299;252;27907;-71
2023/10/16 12:17:27;;;;;;;1.47;1.30;;;9.60;99.90;;;;;;472256;251;27955;-72
2023/10/16 12:19:25;;;;;;;2.20;1.37;;;9.50;99.90;;;;;;472258;251;27731;-71
2023/10/16 12:21:28;;;;;;;1.63;1.50;;;9.70;99.90;;;;;;472263;251;28505;-72
2023/10/16 12:23:29;;;;;;;5.90;1.83;;;9.70;99.90;;;;;;472263;251;28392;-72
2023/10/16 12:25:29;;;;;;;2.07;1.60;;;9.70;99.90;;;;;;472254;250;28445;-71
2023/10/16 12:27:31;;;;;;;1.40;1.30;;;9.70;99.90;;;;;;472249;251;28546;-71